Time;durP1;ratioP1;P1;durP2;ratioP2;P2;SDS_P1;SDS_P2;PMS_P1;PMS_P2;Temp;Humidity;BMP_temperature;BMP_pressure;BME280_temperature;BME280_humidity;BME280_pressure;Samples;Min_cycle;Max_cycle;Signal;HPM_P1;HPM_P2
2023/07/12 00:01:21;;;;;;;4.33;4.00;;;;;;;20.28;100.00;96001.41;7414619;19;20393;-92
2023/07/12 00:03:49;;;;;;;6.60;3.50;;;;;;;19.59;100.00;95956.72;7401136;19;20397;-92
2023/07/12 00:06:17;;;;;;;6.67;4.07;;;;;;;19.59;100.00;95972.81;7401568;19;20392;-92
2023/07/12 00:08:45;;;;;;;3.90;3.33;;;;;;;19.25;100.00;95992.13;7396141;19;20419;-93
2023/07/12 00:11:18;;;;;;;3.77;3.43;;;;;;;18.81;100.00;95939.09;7399391;19;20392;-92
2023/07/12 00:13:46;;;;;;;3.93;3.43;;;;;;;19.11;100.00;95992.94;7398804;19;20380;-92
2023/07/12 00:16:22;;;;;;;3.57;3.37;;;;;;;19.01;100.00;95995.66;7398824;19;20507;-92
2023/07/12 00:18:50;;;;;;;4.23;3.83;;;;;;;18.63;100.00;95968.59;7395209;19;20443;-91
2023/07/12 00:21:24;;;;;;;3.60;3.23;;;;;;;18.63;100.00;95944.47;7395589;19;20372;-92
2023/07/12 00:23:53;;;;;;;3.73;3.37;;;;;;;17.89;100.00;95838.38;7393788;19;20385;-92
2023/07/12 00:26:24;;;;;;;4.03;3.63;;;;;;;18.25;100.00;95906.72;7394357;19;20393;-93
2023/07/12 00:28:52;;;;;;;6.73;3.87;;;;;;;17.17;100.00;95724.66;7397942;19;20405;-93
2023/07/12 00:31:20;;;;;;;5.57;4.10;;;;;;;17.52;100.00;95780.75;7395265;19;20380;-93
2023/07/12 00:33:48;;;;;;;4.00;3.47;;;;;;;17.85;100.00;95842.97;7399008;19;20979;-93
2023/07/12 00:36:26;;;;;;;4.80;4.10;;;;;;;19.25;100.00;96056.47;7395870;19;20391;-94
2023/07/12 00:38:54;;;;;;;5.67;4.00;;;;;;;18.89;100.00;96015.63;7395913;19;20425;-94
2023/07/12 00:42:03;;;;;;;4.87;3.87;;;;;;;19.01;100.00;96046.59;7415003;19;20381;-93
2023/07/12 00:44:36;;;;;;;5.87;3.70;;;;;;;18.92;100.00;96044.31;7421123;19;20433;-93
2023/07/12 00:47:04;;;;;;;4.13;3.70;;;;;;;18.41;100.00;95957.16;7419802;19;20404;-93
2023/07/12 00:49:31;;;;;;;5.57;3.30;;;;;;;18.28;100.00;95908.63;7412434;19;20464;-93
2023/07/12 00:52:11;;;;;;;7.90;3.57;;;;;;;18.60;100.00;95996.91;7421183;19;20400;-93
2023/07/12 00:54:58;;;;;;;6.13;4.07;;;;;;;18.20;100.00;95922.41;7406904;19;20931;-93
2023/07/12 00:57:27;;;;;;;6.00;3.90;;;;;;;19.01;100.00;96023.22;7393725;19;20417;-92
2023/07/12 00:59:58;;;;;;;2.87;2.57;;;;;;;18.75;100.00;95973.56;7399283;19;20456;-90
2023/07/12 01:02:27;;;;;;;4.53;4.03;;;;;;;18.74;100.00;95957.88;7397546;19;20728;-92
2023/07/12 01:04:59;;;;;;;3.30;3.00;;;;;;;18.68;100.00;95913.88;7398653;19;20388;-91
2023/07/12 01:07:29;;;;;;;4.20;3.80;;;;;;;18.36;100.00;95860.44;7398103;19;20401;-92
2023/07/12 01:09:57;;;;;;;5.73;3.30;;;;;;;18.85;100.00;95945.97;7393839;19;20395;-92
2023/07/12 01:12:24;;;;;;;3.37;3.07;;;;;;;18.38;100.00;95866.91;7398227;19;20374;-92
2023/07/12 01:14:52;;;;;;;2.90;2.60;;;;;;;17.96;100.00;95816.97;7394133;19;20378;-92
2023/07/12 01:17:21;;;;;;;4.83;3.23;;;;;;;17.75;100.00;95804.38;7392235;19;20385;-92
2023/07/12 01:19:48;;;;;;;3.87;3.30;;;;;;;18.53;100.00;95934.56;7394652;19;20490;-92
2023/07/12 01:22:16;;;;;;;4.40;3.10;;;;;;;17.88;100.00;95880.41;7398144;19;20384;-91
2023/07/12 01:24:43;;;;;;;4.70;4.30;;;;;;;17.75;100.00;95857.09;7395637;19;20734;-92
2023/07/12 01:27:16;;;;;;;3.87;3.47;;;;;;;18.59;100.00;95970.53;7392923;19;20461;-92
2023/07/12 01:29:47;;;;;;;3.63;3.07;;;;;;;17.77;100.00;95844.91;7394811;19;20389;-93
2023/07/12 01:32:14;;;;;;;5.60;3.83;;;;;;;18.11;100.00;95917.44;7392971;19;20380;-92
2023/07/12 01:34:44;;;;;;;5.47;3.90;;;;;;;16.78;100.00;95706.72;7392258;19;20382;-93
2023/07/12 01:37:12;;;;;;;3.40;3.10;;;;;;;17.20;100.00;95763.94;7390324;19;20395;-93
2023/07/12 01:39:40;;;;;;;4.50;3.03;;;;;;;17.33;100.00;95775.78;7399360;19;20367;-92
2023/07/12 01:42:09;;;;;;;3.30;2.70;;;;;;;17.16;100.00;95739.16;7399201;19;20891;-93
2023/07/12 01:44:36;;;;;;;3.00;2.70;;;;;;;16.58;100.00;95620.16;7402468;19;20476;-92
2023/07/12 01:47:03;;;;;;;3.20;2.90;;;;;;;18.24;100.00;95856.25;7404682;19;20456;-92
2023/07/12 01:49:32;;;;;;;4.00;2.87;;;;;;;18.48;100.00;95887.53;7402559;19;20391;-92
2023/07/12 01:51:59;;;;;;;3.67;2.80;;;;;;;17.74;100.00;95757.41;7404496;19;20384;-93
2023/07/12 01:54:26;;;;;;;3.63;2.73;;;;;;;18.39;100.00;95828.28;7428062;19;20448;-94
2023/07/12 01:56:54;;;;;;;3.50;3.17;;;;;;;18.16;100.00;95769.91;7420675;19;20815;-93
2023/07/12 01:59:23;;;;;;;3.40;2.60;;;;;;;18.14;100.00;95777.53;7402861;19;20939;-93
2023/07/12 02:01:49;;;;;;;4.80;3.10;;;;;;;17.88;100.00;95711.88;7404104;19;20402;-94
2023/07/12 02:04:17;;;;;;;7.77;3.10;;;;;;;17.78;100.00;95704.69;7411186;19;20366;-93
2023/07/12 02:06:44;;;;;;;4.03;3.10;;;;;;;17.67;100.00;95685.97;7425019;19;20384;-93
2023/07/12 02:09:11;;;;;;;3.90;3.50;;;;;;;16.25;100.00;95461.97;7425264;19;20437;-93
2023/07/12 02:11:38;;;;;;;5.43;3.23;;;;;;;17.31;100.00;95588.34;7428523;19;20420;-93
2023/07/12 02:14:04;;;;;;;3.70;3.30;;;;;;;16.80;100.00;95477.50;7430442;19;20400;-93
2023/07/12 02:16:33;;;;;;;4.87;2.90;;;;;;;17.18;100.00;95565.88;7426336;19;20399;-93
2023/07/12 02:18:59;;;;;;;4.87;3.53;;;;;;;17.01;100.00;95519.41;7416807;19;20411;-93
2023/07/12 02:21:26;;;;;;;3.10;2.90;;;;;;;17.52;100.00;95590.94;7398704;19;20346;-92
2023/07/12 02:23:53;;;;;;;2.93;2.57;;;;;;;16.11;100.00;95390.00;7401850;19;20388;-92
2023/07/12 02:26:20;;;;;;;3.23;2.67;;;;;;;17.74;100.00;95631.72;7400754;19;20397;-93
2023/07/12 02:28:47;;;;;;;3.43;2.30;;;;;;;16.88;100.00;95507.59;7401156;19;20404;-92
2023/07/12 02:31:23;;;;;;;3.40;2.90;;;;;;;18.03;100.00;95672.50;7400618;19;20749;-92
2023/07/12 02:33:50;;;;;;;3.40;3.10;;;;;;;17.85;100.00;95653.06;7398366;19;20372;-92
2023/07/12 02:36:18;;;;;;;2.87;2.67;;;;;;;17.46;100.00;95600.50;7399955;19;20403;-93
2023/07/12 02:38:46;;;;;;;3.37;3.07;;;;;;;16.92;100.00;95522.47;7400739;19;20416;-92
2023/07/12 02:41:15;;;;;;;3.60;2.63;;;;;;;17.66;100.00;95596.22;7400755;19;20384;-93
2023/07/12 02:43:44;;;;;;;3.17;2.40;;;;;;;18.33;100.00;95689.91;7402923;19;20372;-93
2023/07/12 02:46:11;;;;;;;3.77;2.60;;;;;;;17.71;100.00;95609.22;7401308;19;20499;-93
2023/07/12 02:48:38;;;;;;;3.07;2.60;;;;;;;17.20;100.00;95526.19;7402232;19;20397;-93
2023/07/12 02:51:05;;;;;;;7.00;2.47;;;;;;;17.86;100.00;95668.72;7399088;19;20948;-92
2023/07/12 02:53:33;;;;;;;3.13;2.83;;;;;;;17.59;100.00;95644.38;7401616;19;20387;-92
2023/07/12 02:56:04;;;;;;;5.40;3.60;;;;;;;17.21;100.00;95559.75;7402484;19;20393;-92
2023/07/12 02:58:31;;;;;;;3.57;3.10;;;;;;;17.54;100.00;95614.63;7425447;19;20420;-93
2023/07/12 03:00:58;;;;;;;3.77;3.37;;;;;;;18.15;100.00;95709.47;7401656;19;20697;-92
2023/07/12 03:03:29;;;;;;;3.87;3.53;;;;;;;17.89;100.00;95664.50;7402630;19;20447;-92
2023/07/12 03:06:02;;;;;;;4.30;3.10;;;;;;;17.39;100.00;95587.19;7398023;19;20400;-93
2023/07/12 03:08:29;;;;;;;3.17;2.97;;;;;;;18.12;100.00;95722.88;7397402;19;20435;-93
2023/07/12 03:11:01;;;;;;;3.10;2.80;;;;;;;17.85;100.00;95669.13;7400253;19;20384;-92
2023/07/12 03:13:28;;;;;;;3.40;3.10;;;;;;;17.41;100.00;95617.72;7398434;19;20400;-92
2023/07/12 03:15:55;;;;;;;3.00;2.57;;;;;;;17.95;100.00;95708.44;7399344;19;20400;-92
2023/07/12 03:18:22;;;;;;;2.90;2.70;;;;;;;17.96;100.00;95739.38;7395989;19;20432;-92
2023/07/12 03:20:49;;;;;;;2.90;2.70;;;;;;;18.34;100.00;95795.81;7398029;19;20375;-92
2023/07/12 03:23:19;;;;;;;4.50;1.90;;;;;;;18.18;100.00;95786.31;7397282;19;20370;-92
2023/07/12 03:25:46;;;;;;;2.53;2.20;;;;;;;18.27;100.00;95815.31;7397618;19;20366;-92
2023/07/12 03:28:14;;;;;;;2.80;2.10;;;;;;;18.15;100.00;95813.84;7398154;19;20404;-92
2023/07/12 03:30:41;;;;;;;2.90;1.87;;;;;;;17.95;100.00;95820.78;7400391;19;20351;-92
2023/07/12 03:33:08;;;;;;;2.80;2.33;;;;;;;17.43;100.00;95718.88;7425800;19;20391;-92
2023/07/12 03:35:35;;;;;;;2.27;2.00;;;;;;;17.77;100.00;95747.88;7432923;19;20393;-92
2023/07/12 03:38:02;;;;;;;2.60;2.40;;;;;;;17.92;100.00;95784.88;7426602;19;20472;-93
2023/07/12 03:40:29;;;;;;;3.43;2.10;;;;;;;17.63;100.00;95737.94;7430521;19;20389;-92
2023/07/12 03:42:56;;;;;;;2.53;2.00;;;;;;;17.48;100.00;95739.88;7423216;19;20408;-92
2023/07/12 03:45:23;;;;;;;2.80;2.43;;;;;;;17.99;100.00;95802.81;7402281;19;20353;-92
2023/07/12 03:47:50;;;;;;;3.10;2.47;;;;;;;17.40;100.00;95699.03;7399606;19;20528;-93
2023/07/12 03:50:46;;;;;;;3.70;2.97;;;;;;;16.65;100.00;95577.41;7401446;19;20441;-92
2023/07/12 03:53:17;;;;;;;3.57;2.63;;;;;;;16.74;100.00;95609.84;7399233;19;20956;-92
2023/07/12 03:55:45;;;;;;;3.00;2.70;;;;;;;17.72;100.00;95732.97;7397599;19;20395;-92
2023/07/12 03:58:16;;;;;;;3.40;3.10;;;;;;;16.96;100.00;95643.41;7399017;19;20445;-92
2023/07/12 04:00:45;;;;;;;3.17;2.87;;;;;;;17.76;100.00;95725.69;7397368;19;20407;-92
2023/07/12 04:03:13;;;;;;;4.67;3.27;;;;;;;17.02;100.00;95596.44;7400243;19;20727;-93
2023/07/12 04:05:41;;;;;;;3.63;3.33;;;;;;;18.08;100.00;95772.97;7399200;19;20378;-92
2023/07/12 04:08:11;;;;;;;2.93;2.63;;;;;;;17.49;100.00;95695.94;7397178;19;20837;-92
2023/07/12 04:10:38;;;;;;;3.23;2.93;;;;;;;17.18;100.00;95659.38;7397200;19;20366;-92
2023/07/12 04:13:05;;;;;;;5.20;4.30;;;;;;;17.11;100.00;95674.28;7398802;19;20379;-92
2023/07/12 04:15:32;;;;;;;4.23;3.30;;;;;;;17.09;100.00;95665.13;7397644;19;20726;-92
2023/07/12 04:17:59;;;;;;;6.10;3.43;;;;;;;17.54;100.00;95719.63;7396747;19;20464;-92
2023/07/12 04:20:26;;;;;;;6.20;3.33;;;;;;;17.89;100.00;95740.16;7397281;19;20373;-92
2023/07/12 04:22:53;;;;;;;4.07;3.33;;;;;;;16.63;100.00;95558.34;7399530;19;20384;-91
2023/07/12 04:25:20;;;;;;;6.20;3.50;;;;;;;17.46;100.00;95677.25;7398159;19;20408;-92
2023/07/12 04:27:47;;;;;;;4.40;4.00;;;;;;;17.22;100.00;95623.47;7400221;19;20767;-92
2023/07/12 04:30:16;;;;;;;3.27;3.00;;;;;;;17.40;100.00;95626.88;7397202;19;20912;-91
2023/07/12 04:32:47;;;;;;;3.87;3.47;;;;;;;17.16;100.00;95554.81;7396650;19;20377;-92
2023/07/12 04:35:14;;;;;;;5.40;4.60;;;;;;;17.28;100.00;95600.59;7394603;19;20411;-92
2023/07/12 04:37:46;;;;;;;5.97;3.53;;;;;;;18.05;100.00;95713.00;7394705;19;20442;-92
2023/07/12 04:40:13;;;;;;;3.73;3.43;;;;;;;18.26;100.00;95733.50;7400157;19;20362;-92
2023/07/12 04:42:41;;;;;;;5.80;4.43;;;;;;;18.12;100.00;95688.09;7394648;19;20394;-92
2023/07/12 04:45:09;;;;;;;4.27;3.83;;;;;;;18.84;100.00;95778.34;7398070;19;20382;-92
2023/07/12 04:47:37;;;;;;;3.70;3.40;;;;;;;18.01;100.00;95662.16;7395660;19;20428;-89
2023/07/12 04:50:05;;;;;;;3.33;3.03;;;;;;;17.92;100.00;95653.81;7398533;19;20402;-89
2023/07/12 04:52:32;;;;;;;4.50;3.60;;;;;;;18.39;100.00;95699.03;7396414;19;20937;-90
2023/07/12 04:55:03;;;;;;;3.60;3.30;;;;;;;17.78;100.00;95619.13;7397514;19;20385;-90
2023/07/12 04:57:31;;;;;;;3.80;3.50;;;;;;;18.40;100.00;95721.97;7395884;19;20370;-90
2023/07/12 04:59:58;;;;;;;4.47;4.17;;;;;;;18.70;100.00;95770.41;7397493;19;20480;-90
2023/07/12 05:02:25;;;;;;;3.83;3.53;;;;;;;18.44;100.00;95747.59;7397288;19;20392;-90
2023/07/12 05:04:52;;;;;;;3.53;3.33;;;;;;;18.20;100.00;95714.44;7398871;19;20375;-90
2023/07/12 05:07:19;;;;;;;4.00;3.60;;;;;;;18.70;100.00;95775.00;7396637;19;20944;-90
2023/07/12 05:09:46;;;;;;;3.63;3.40;;;;;;;18.78;100.00;95808.63;7397000;19;20478;-91
2023/07/12 05:12:13;;;;;;;4.30;3.90;;;;;;;18.38;100.00;95767.09;7397826;19;20419;-90
2023/07/12 05:14:40;;;;;;;4.80;4.30;;;;;;;17.93;100.00;95708.84;7403538;19;20745;-90
2023/07/12 05:17:07;;;;;;;4.00;3.70;;;;;;;18.61;100.00;95829.72;7400717;19;20438;-90
2023/07/12 05:19:34;;;;;;;4.27;3.40;;;;;;;18.43;100.00;95801.50;7403978;19;20430;-90
2023/07/12 05:22:01;;;;;;;4.03;3.70;;;;;;;18.12;100.00;95763.78;7404245;19;20917;-90
2023/07/12 05:24:28;;;;;;;3.87;3.47;;;;;;;18.19;100.00;95758.41;7403003;19;20464;-90
2023/07/12 05:26:58;;;;;;;4.97;3.63;;;;;;;18.71;100.00;95824.75;7404137;19;20369;-90
2023/07/12 05:29:25;;;;;;;4.30;4.00;;;;;;;18.58;100.00;95776.97;7399896;19;20392;-90
2023/07/12 05:31:52;;;;;;;4.50;4.10;;;;;;;18.65;100.00;95767.38;7403730;19;20508;-90
2023/07/12 05:34:19;;;;;;;3.67;3.37;;;;;;;18.67;100.00;95767.75;7406432;19;20387;-90
2023/07/12 05:36:46;;;;;;;4.07;3.77;;;;;;;18.70;100.00;95757.03;7414926;19;20385;-92
2023/07/12 05:39:13;;;;;;;5.70;4.00;;;;;;;18.61;100.00;95725.28;7405118;19;20434;-91
2023/07/12 05:41:40;;;;;;;4.43;3.30;;;;;;;19.56;100.00;95815.34;7405408;19;20384;-91
2023/07/12 05:44:07;;;;;;;3.90;3.60;;;;;;;17.92;100.00;95576.25;7406426;19;20402;-91
2023/07/12 05:46:34;;;;;;;4.73;4.33;;;;;;;18.05;100.00;95560.50;7405804;19;20394;-91
2023/07/12 05:49:01;;;;;;;3.10;2.80;;;;;;;18.81;100.00;95673.91;7401976;19;20440;-91
2023/07/12 05:51:28;;;;;;;4.23;3.47;;;;;;;19.08;100.00;95767.84;7404970;19;20385;-92
2023/07/12 05:53:55;;;;;;;3.73;3.43;;;;;;;18.43;100.00;95643.53;7403164;19;20408;-92
2023/07/12 05:56:22;;;;;;;3.80;3.50;;;;;;;18.64;100.00;95682.84;7404426;19;20410;-92
2023/07/12 05:58:49;;;;;;;5.10;3.67;;;;;;;19.64;100.00;95820.28;7401873;19;20428;-92
2023/07/12 06:01:17;;;;;;;4.00;3.50;;;;;;;18.93;100.00;95702.13;7408003;19;20393;-91
2023/07/12 06:03:44;;;;;;;4.37;3.47;;;;;;;19.28;100.00;95720.56;7403313;19;20401;-92
2023/07/12 06:06:12;;;;;;;4.63;4.10;;;;;;;19.96;100.00;95793.09;7404667;19;20900;-91
2023/07/12 06:08:39;;;;;;;3.90;3.60;;;;;;;19.63;100.00;95719.50;7403380;19;20429;-93
2023/07/12 06:11:06;;;;;;;3.53;3.20;;;;;;;19.23;100.00;95651.31;7405387;19;20386;-93
2023/07/12 06:13:33;;;;;;;3.40;3.13;;;;;;;19.09;100.00;95648.75;7402515;19;20467;-93
2023/07/12 06:16:02;;;;;;;5.13;4.10;;;;;;;19.89;100.00;95736.81;7403593;19;20386;-92
2023/07/12 06:18:32;;;;;;;3.47;3.27;;;;;;;19.81;100.00;95719.31;7400691;19;20440;-92
2023/07/12 06:21:03;;;;;;;3.20;2.90;;;;;;;20.60;100.00;95773.56;7404061;19;20781;-92
2023/07/12 06:23:30;;;;;;;4.23;3.53;;;;;;;20.57;100.00;95777.06;7403545;19;20500;-92
2023/07/12 06:25:58;;;;;;;3.33;3.00;;;;;;;21.19;100.00;95845.66;7403665;19;20490;-93
2023/07/12 06:28:26;;;;;;;3.00;2.77;;;;;;;21.04;100.00;95828.22;7400737;19;20422;-92
2023/07/12 06:30:53;;;;;;;3.97;3.57;;;;;;;20.53;100.00;95760.22;7403372;19;20412;-92
2023/07/12 06:33:20;;;;;;;4.80;3.27;;;;;;;20.80;100.00;95773.66;7401224;19;20394;-92
2023/07/12 06:35:47;;;;;;;4.13;3.80;;;;;;;20.38;100.00;95700.53;7403977;19;20395;-92
2023/07/12 06:38:16;;;;;;;4.70;3.27;;;;;;;20.23;100.00;95717.25;7401581;19;20456;-91
2023/07/12 06:40:45;;;;;;;4.00;3.17;;;;;;;20.32;100.00;95731.72;7404133;19;20401;-92
2023/07/12 06:43:12;;;;;;;2.97;2.77;;;;;;;20.25;100.00;95693.44;7402735;19;20465;-92
2023/07/12 06:45:44;;;;;;;3.77;3.37;;;;;;;21.15;100.00;95828.84;7401812;19;20405;-92
2023/07/12 06:48:14;;;;;;;3.37;2.93;;;;;;;19.52;100.00;95584.75;7403140;19;20942;-92
2023/07/12 06:50:41;;;;;;;3.20;3.00;;;;;;;19.73;100.00;95602.50;7415567;19;20405;-91
2023/07/12 06:53:08;;;;;;;3.57;3.27;;;;;;;19.56;100.00;95557.91;7409951;19;20721;-91
2023/07/12 06:55:40;;;;;;;3.00;2.80;;;;;;;20.98;100.00;95762.66;7402124;19;20400;-91
2023/07/12 06:58:07;;;;;;;2.87;2.67;;;;;;;21.56;100.00;95816.31;7401743;19;20434;-92
2023/07/12 07:00:34;;;;;;;3.50;3.17;;;;;;;20.85;100.00;95737.53;7400794;19;20397;-91
2023/07/12 07:03:01;;;;;;;6.23;3.30;;;;;;;20.57;100.00;95704.53;7402982;19;20382;-92
2023/07/12 07:05:28;;;;;;;2.90;2.43;;;;;;;20.18;100.00;95596.91;7401246;19;20452;-91
2023/07/12 07:07:55;;;;;;;3.80;3.00;;;;;;;20.22;100.00;95584.19;7402285;19;20988;-92
2023/07/12 07:10:23;;;;;;;3.00;2.70;;;;;;;19.93;100.00;95533.63;7401195;19;20386;-92
2023/07/12 07:12:50;;;;;;;3.20;2.90;;;;;;;20.46;100.00;95601.88;7399353;19;20380;-91
2023/07/12 07:15:17;;;;;;;3.63;3.33;;;;;;;20.91;100.00;95674.81;7401598;19;20936;-91
2023/07/12 07:17:44;;;;;;;3.90;3.03;;;;;;;21.41;100.00;95741.25;7402524;19;20424;-92
2023/07/12 07:20:11;;;;;;;3.80;3.47;;;;;;;21.34;100.00;95709.06;7401313;19;20399;-92
2023/07/12 07:22:38;;;;;;;3.97;3.67;;;;;;;20.20;100.00;95552.38;7401309;19;20434;-92
2023/07/12 07:25:06;;;;;;;3.40;3.00;;;;;;;21.36;100.00;95771.28;7399603;19;20923;-92
2023/07/12 07:27:46;;;;;;;4.90;3.63;;;;;;;20.87;100.00;95700.25;7400819;19;20421;-92
2023/07/12 07:30:14;;;;;;;3.80;3.50;;;;;;;21.63;100.00;95767.75;7400683;19;20389;-92
2023/07/12 07:32:41;;;;;;;4.40;3.27;;;;;;;20.99;100.00;95670.09;7401932;19;20408;-92
2023/07/12 07:35:08;;;;;;;3.67;2.97;;;;;;;21.34;100.00;95719.84;7400055;19;20722;-92
2023/07/12 07:37:35;;;;;;;6.47;3.57;;;;;;;21.77;100.00;95803.25;7396452;19;20396;-92
2023/07/12 07:40:03;;;;;;;5.40;3.70;;;;;;;21.99;100.00;95803.63;7399671;19;20388;-92
2023/07/12 07:42:30;;;;;;;4.07;3.30;;;;;;;21.67;100.00;95728.09;7400706;19;20414;-92
2023/07/12 07:44:57;;;;;;;4.87;4.03;;;;;;;21.48;100.00;95676.53;7399840;19;20382;-92
2023/07/12 07:47:24;;;;;;;7.40;3.60;;;;;;;21.59;100.00;95722.06;7397908;19;20457;-92
2023/07/12 07:49:52;;;;;;;7.53;3.53;;;;;;;21.70;100.00;95735.34;7400332;19;20746;-92
2023/07/12 07:52:19;;;;;;;5.27;3.50;;;;;;;21.63;100.00;95770.44;7398732;19;20381;-91
2023/07/12 07:54:46;;;;;;;7.70;3.30;;;;;;;20.36;100.00;95624.25;7400225;19;20413;-92
2023/07/12 07:57:13;;;;;;;4.30;3.87;;;;;;;22.03;100.00;95897.78;7399795;19;20387;-92
2023/07/12 07:59:40;;;;;;;7.23;4.30;;;;;;;20.07;100.00;95527.28;7395564;19;20448;-92
2023/07/12 08:02:09;;;;;;;4.33;3.90;;;;;;;21.91;100.00;95785.34;7398893;19;20409;-92
2023/07/12 08:04:37;;;;;;;3.73;3.43;;;;;;;21.98;100.00;95763.66;7399925;19;20775;-91
2023/07/12 08:07:05;;;;;;;4.40;4.00;;;;;;;22.71;100.00;95822.63;7402448;19;20387;-92
2023/07/12 08:09:36;;;;;;;5.60;4.30;;;;;;;22.15;100.00;95781.41;7398315;19;20458;-91
2023/07/12 08:12:04;;;;;;;8.80;4.63;;;;;;;20.72;100.00;95575.34;7398064;19;20969;-92
2023/07/12 08:14:31;;;;;;;6.83;4.40;;;;;;;21.87;100.00;95771.94;7398756;19;20383;-92
2023/07/12 08:16:58;;;;;;;9.10;6.53;;;;;;;22.03;100.00;95792.78;7398923;19;20398;-92
2023/07/12 08:19:25;;;;;;;7.33;4.90;;;;;;;21.74;100.00;95720.63;7399016;19;20430;-92
2023/07/12 08:21:52;;;;;;;8.83;4.20;;;;;;;21.32;100.00;95673.78;7398565;19;20387;-92
2023/07/12 08:24:19;;;;;;;6.23;4.43;;;;;;;20.58;100.00;95589.78;7399799;19;20479;-92
2023/07/12 08:26:46;;;;;;;5.07;4.67;;;;;;;21.09;100.00;95684.50;7397243;19;20481;-91
2023/07/12 08:29:32;;;;;;;7.07;5.10;;;;;;;22.67;100.00;95918.19;7395139;19;20411;-91
2023/07/12 08:31:59;;;;;;;8.37;4.30;;;;;;;21.94;100.00;95831.03;7399546;19;20395;-92
2023/07/12 08:34:26;;;;;;;5.43;4.93;;;;;;;21.72;100.00;95765.28;7397928;19;20383;-92
2023/07/12 08:36:53;;;;;;;5.00;4.07;;;;;;;22.44;100.00;95865.16;7399528;19;20412;-92
2023/07/12 08:39:20;;;;;;;4.87;4.33;;;;;;;22.75;100.00;95876.47;7399220;19;20479;-92
2023/07/12 08:41:47;;;;;;;6.13;4.87;;;;;;;21.01;100.00;95616.69;7409961;19;20385;-92
2023/07/12 08:44:14;;;;;;;8.10;5.27;;;;;;;22.39;100.00;95798.25;7402063;19;20417;-92
2023/07/12 08:46:59;;;;;;;5.60;4.40;;;;;;;23.15;100.00;95924.97;7400788;19;20425;-92
2023/07/12 08:49:27;;;;;;;7.53;4.80;;;;;;;23.01;100.00;95917.94;7396326;19;20457;-92
2023/07/12 08:52:01;;;;;;;11.73;4.67;;;;;;;22.78;100.00;95851.34;7400563;19;20410;-92
2023/07/12 08:54:33;;;;;;;6.33;4.17;;;;;;;22.64;100.00;95867.81;7398719;19;20384;-92
2023/07/12 08:57:11;;;;;;;8.40;4.70;;;;;;;22.65;100.00;95882.81;7397537;19;20394;-91
2023/07/12 08:59:38;;;;;;;6.90;5.40;;;;;;;22.34;100.00;95799.53;7396419;19;20413;-91
2023/07/12 09:02:17;;;;;;;9.47;5.30;;;;;;;22.48;100.00;95789.63;7396341;19;20387;-91
2023/07/12 09:04:44;;;;;;;6.00;5.17;;;;;;;22.83;100.00;95783.47;7399965;19;20377;-92
2023/07/12 09:07:21;;;;;;;5.30;4.80;;;;;;;23.45;100.00;95868.00;7398067;19;20495;-92
2023/07/12 09:09:49;;;;;;;4.80;4.40;;;;;;;23.52;100.00;95808.47;7398082;19;20431;-92
2023/07/12 09:12:30;;;;;;;6.20;5.60;;;;;;;23.78;100.00;95882.31;7398343;19;20394;-92
2023/07/12 09:15:11;;;;;;;5.70;5.20;;;;;;;23.45;100.00;95876.09;7395515;19;20931;-91
2023/07/12 09:17:43;;;;;;;7.87;5.00;;;;;;;22.43;100.00;95665.00;7398602;19;20398;-92
2023/07/12 09:20:23;;;;;;;6.90;5.73;;;;;;;23.31;100.00;95757.72;7394757;19;20400;-92
2023/07/12 09:22:51;;;;;;;6.63;5.00;;;;;;;23.56;100.00;95776.00;7399266;19;20378;-92
2023/07/12 09:25:25;;;;;;;5.30;4.80;;;;;;;23.87;100.00;95885.13;7397765;19;20471;-92
2023/07/12 09:27:53;;;;;;;5.90;4.97;;;;;;;22.33;100.00;95697.56;7394619;19;20426;-91
2023/07/12 09:30:25;;;;;;;7.43;5.10;;;;;;;23.05;100.00;95804.59;7396258;19;20393;-92
2023/07/12 09:32:56;;;;;;;9.03;5.43;;;;;;;23.42;100.00;95909.34;7395109;19;20910;-92
2023/07/12 09:35:47;;;;;;;8.33;6.30;;;;;;;23.82;100.00;95863.31;7392629;19;20376;-92
2023/07/12 09:38:17;;;;;;;7.33;6.53;;;;;;;22.67;100.00;95768.00;7394983;19;20432;-91
2023/07/12 09:40:47;;;;;;;11.00;5.33;;;;;;;22.33;100.00;95767.63;7394586;19;20380;-91
2023/07/12 09:43:18;;;;;;;11.30;5.47;;;;;;;23.16;100.00;95876.00;7398297;19;20391;-92
2023/07/12 09:45:52;;;;;;;5.33;4.93;;;;;;;21.73;100.00;95640.31;7395475;19;20443;-91
2023/07/12 09:48:56;;;;;;;11.20;5.90;;;;;;;22.46;100.00;95717.31;7396992;19;20434;-91
2023/07/12 09:51:39;;;;;;;8.33;6.40;;;;;;;23.49;100.00;95841.69;7397513;19;20435;-91
2023/07/12 09:54:26;;;;;;;5.93;5.33;;;;;;;24.41;100.00;95944.00;7397365;19;20413;-91
2023/07/12 09:56:59;;;;;;;6.40;5.47;;;;;;;23.69;100.00;95852.44;7401245;19;20391;-91
2023/07/12 09:59:38;;;;;;;5.50;4.77;;;;;;;23.99;100.00;95891.03;7399971;19;20876;-91
2023/07/12 10:02:25;;;;;;;6.50;5.20;;;;;;;24.08;100.00;95861.47;7406696;19;20388;-91
2023/07/12 10:05:11;;;;;;;6.80;5.57;;;;;;;24.81;100.00;95915.91;7405924;19;20400;-91
2023/07/12 10:07:45;;;;;;;6.13;5.53;;;;;;;24.33;100.00;95839.25;7407493;19;20383;-91
2023/07/12 10:10:21;;;;;;;10.60;5.87;;;;;;;22.88;100.00;95653.59;7402951;19;20407;-91
2023/07/12 10:12:56;;;;;;;7.40;5.83;;;;;;;23.49;100.00;95716.78;7404898;19;20459;-92
2023/07/12 10:15:32;;;;;;;6.27;4.53;;;;;;;24.21;100.00;95765.03;7404752;19;20388;-91
2023/07/12 10:18:03;;;;;;;5.80;5.20;;;;;;;23.50;100.00;95661.63;7403159;19;20417;-92
2023/07/12 10:20:39;;;;;;;5.43;4.93;;;;;;;24.36;100.00;95776.22;7400345;19;20403;-91
2023/07/12 10:23:14;;;;;;;6.93;5.30;;;;;;;23.63;100.00;95632.00;7399562;19;20447;-92
2023/07/12 10:25:58;;;;;;;6.50;4.13;;;;;;;23.76;100.00;95620.03;7404148;19;20401;-91
2023/07/12 10:28:54;;;;;;;5.17;4.67;;;;;;;24.95;100.00;95791.81;7403801;19;20929;-91
2023/07/12 10:31:38;;;;;;;5.67;4.57;;;;;;;24.73;100.00;95774.75;7404929;19;20394;-91
2023/07/12 10:34:27;;;;;;;5.63;4.27;;;;;;;25.48;100.00;95873.34;7404106;19;20458;-92
2023/07/12 10:37:05;;;;;;;4.67;4.07;;;;;;;24.46;100.00;95754.28;7405830;19;20385;-91
2023/07/12 10:39:32;;;;;;;7.20;3.90;;;;;;;24.83;100.00;95719.56;7399008;19;20414;-92
2023/07/12 10:42:08;;;;;;;7.50;4.80;;;;;;;25.31;95.95;95769.09;7404631;19;20990;-92
2023/07/12 10:44:43;;;;;;;4.20;3.90;;;;;;;26.05;97.19;95881.63;7404172;19;20386;-91
2023/07/12 10:47:15;;;;;;;5.87;4.53;;;;;;;24.34;95.16;95698.28;7401053;19;20402;-91
2023/07/12 10:49:59;;;;;;;4.70;4.30;;;;;;;25.34;95.97;95858.31;7407289;19;20420;-91
2023/07/12 10:52:29;;;;;;;4.30;3.93;;;;;;;24.67;91.74;95722.38;7404176;19;20452;-91
2023/07/12 10:55:02;;;;;;;4.90;4.00;;;;;;;26.65;92.95;95933.78;7400507;19;20374;-91
2023/07/12 10:57:46;;;;;;;6.33;3.93;;;;;;;24.77;87.31;95675.34;7431286;19;20377;-92
2023/07/12 11:00:18;;;;;;;6.33;3.87;;;;;;;26.47;87.83;95920.84;7429250;19;20398;-91
2023/07/12 11:03:01;;;;;;;4.60;4.20;;;;;;;26.46;87.94;95894.94;7423307;19;20409;-92
2023/07/12 11:06:11;;;;;;;5.53;5.03;;;;;;;26.67;83.17;95933.34;7404844;19;20410;-91
2023/07/12 11:08:39;;;;;;;4.07;3.73;;;;;;;25.17;82.47;95766.84;7402843;19;20440;-91
2023/07/12 11:11:09;;;;;;;5.03;4.00;;;;;;;26.43;83.51;95930.28;7401340;19;20391;-92
2023/07/12 11:13:44;;;;;;;5.20;4.17;;;;;;;25.47;82.58;95812.25;7400981;19;20409;-92
2023/07/12 11:16:17;;;;;;;12.23;4.33;;;;;;;25.83;78.04;95838.22;7398053;19;20405;-91
2023/07/12 11:18:54;;;;;;;4.33;4.00;;;;;;;26.37;77.38;95938.25;7397340;19;20422;-92
2023/07/12 11:21:46;;;;;;;7.60;5.00;;;;;;;26.18;78.54;95841.69;7399889;19;20379;-92
2023/07/12 11:24:26;;;;;;;5.80;4.70;;;;;;;26.66;77.85;95824.06;7397357;19;20393;-92
2023/07/12 11:26:57;;;;;;;4.37;3.97;;;;;;;26.16;82.16;95732.91;7400718;19;20402;-92
2023/07/12 11:29:24;;;;;;;7.87;4.40;;;;;;;27.59;85.66;95943.50;7395731;19;20426;-92
2023/07/12 11:32:19;;;;;;;5.30;4.20;;;;;;;26.37;86.66;95937.47;7400876;19;20751;-92
2023/07/12 11:34:47;;;;;;;6.43;4.83;;;;;;;23.98;91.46;95687.72;7400815;19;20929;-92
2023/07/12 11:37:21;;;;;;;5.93;4.67;;;;;;;25.10;88.75;95740.75;7401378;19;20404;-92
2023/07/12 11:39:49;;;;;;;5.37;5.00;;;;;;;26.07;84.50;95833.91;7398557;19;20945;-92
2023/07/12 11:42:27;;;;;;;5.63;5.00;;;;;;;26.33;86.64;95899.63;7402064;19;20385;-93